^^
Datos históricos de la estación: Murcia-Puente Tocinos
Diario Informe para Mayo 11, 2021 Unidades:  Métrico    Ingés   Ambas
Diario Semanal Mensual Anual
  Máxima: Mínima: Promedio:
Temperatura: 24.4 °C 15.6 °C 19.7 °C
Punto de rocio: 7.8 °C 0.2 °C 3.6 °C
Humedad: 48% 22.6% 36%
Velocidad viento: 22.1km/h 3.2km/h 12.6km/h
Racha viento: 41.8km/h - -
Viento- - OSO
Presión: 1019.6 hPa 1011.4 hPa -
Precipitación: 0.0 mm    
 
 
Tabla de datos para Mayo 11, 2021
Hora Temperatura Punto de rocio Presión Viento Velocidad viento Racha viento Humedad Intensidad lluvia(por hora) Nubes
00:04 19.8 °C 5.3 °C 1011.4 hPa SO 9.5 km/h 20.9 km/h 38.7% 0.0 mm
00:09 19.8 °C 5.4 °C 1011.4 hPa SO 10 km/h 25.9 km/h 39% 0.0 mm
00:14 19.8 °C 5.4 °C 1011.8 hPa SO 10.3 km/h 30.6 km/h 39% 0.0 mm
00:19 19.7 °C 5.3 °C 1011.8 hPa OSO 14.2 km/h 37 km/h 39% 0.0 mm
00:24 19.7 °C 5.3 °C 1011.8 hPa OSO 16.4 km/h 37 km/h 39% 0.0 mm
00:29 19.6 °C 5.2 °C 1011.8 hPa OSO 17.7 km/h 37 km/h 39% 0.0 mm
00:34 19.4 °C 5.1 °C 1011.8 hPa OSO 18.4 km/h 30.6 km/h 39% 0.0 mm
00:39 19.3 °C 5.2 °C 1011.8 hPa OSO 17 km/h 30.6 km/h 39.4% 0.0 mm
00:44 19.3 °C 5.3 °C 1012.0 hPa SO 16.1 km/h 27.8 km/h 39.8% 0.0 mm
00:49 19.2 °C 5.3 °C 1012.0 hPa SO 14.9 km/h 28.2 km/h 40% 0.0 mm
00:54 19.1 °C 5.2 °C 1012.0 hPa OSO 14 km/h 30.6 km/h 40% 0.0 mm
00:59 19.1 °C 5.1 °C 1012.2 hPa SO 16.4 km/h 30.6 km/h 40% 0.0 mm
01:04 18.9 °C 5.2 °C 1012.2 hPa OSO 18 km/h 37 km/h 40.4% 0.0 mm
01:09 18.9 °C 5.3 °C 1012.2 hPa SO 18.2 km/h 37 km/h 41% 0.0 mm
01:14 18.8 °C 5.3 °C 1012.3 hPa SO 18.4 km/h 29 km/h 41% 0.0 mm
01:19 18.8 °C 5.3 °C 1012.3 hPa SO 15.6 km/h 29.6 km/h 41% 0.0 mm
01:24 18.7 °C 5.5 °C 1012.3 hPa OSO 14 km/h 24.5 km/h 41.9% 0.0 mm
01:29 18.7 °C 5.5 °C 1012.5 hPa SO 13.8 km/h 25.6 km/h 42% 0.0 mm
01:34 18.6 °C 5.4 °C 1012.5 hPa SO 13.7 km/h 25.9 km/h 42% 0.0 mm
01:39 18.4 °C 5.6 °C 1012.5 hPa SO 14.9 km/h 25.7 km/h 42.9% 0.0 mm
01:44 18.3 °C 5.6 °C 1012.5 hPa SO 15.6 km/h 25.9 km/h 43% 0.0 mm
01:49 18.3 °C 5.5 °C 1012.4 hPa SO 15.9 km/h 25.9 km/h 43% 0.0 mm
01:54 18.3 °C 5.5 °C 1012.4 hPa SO 16.1 km/h 35.2 km/h 43% 0.0 mm
01:59 18.3 °C 5.5 °C 1012.4 hPa OSO 18.3 km/h 35.4 km/h 43% 0.0 mm
02:04 18.3 °C 5.5 °C 1012.3 hPa SO 19.8 km/h 37.8 km/h 43% 0.0 mm
02:09 18.2 °C 5.4 °C 1012.3 hPa SO 19.8 km/h 41.2 km/h 43% 0.0 mm
02:14 18.1 °C 5.3 °C 1012.4 hPa OSO 19.8 km/h 41.8 km/h 43% 0.0 mm
02:19 18 °C 5.4 °C 1012.4 hPa OSO 21.1 km/h 37 km/h 43.4% 0.0 mm
02:24 17.9 °C 5.4 °C 1012.4 hPa OSO 22.1 km/h 33.3 km/h 44% 0.0 mm
02:29 17.9 °C 5.4 °C 1012.7 hPa SO 20.6 km/h 33.8 km/h 44% 0.0 mm
02:34 17.8 °C 5.4 °C 1012.7 hPa SO 19.8 km/h 30.6 km/h 44% 0.0 mm
02:39 17.8 °C 5.4 °C 1012.7 hPa SO 18.2 km/h 27.8 km/h 44% 0.0 mm
02:44 17.8 °C 5.3 °C 1012.8 hPa SO 17.2 km/h 27.8 km/h 43.6% 0.0 mm
02:49 17.7 °C 5.3 °C 1012.8 hPa SO 17.2 km/h 30.6 km/h 44% 0.0 mm
02:54 17.7 °C 5.2 °C 1012.8 hPa SO 17.2 km/h 30.6 km/h 44% 0.0 mm
02:59 17.5 °C 5.2 °C 1012.8 hPa SO 16.2 km/h 25.9 km/h 44.2% 0.0 mm
03:04 17.4 °C 5.3 °C 1012.7 hPa SO 15.6 km/h 25.7 km/h 45% 0.0 mm
03:09 17.4 °C 5.3 °C 1012.7 hPa SO 13.3 km/h 20.9 km/h 45% 0.0 mm
03:14 17.4 °C 5.3 °C 1012.8 hPa SO 11.9 km/h 20.9 km/h 45% 0.0 mm
03:19 17.3 °C 5.2 °C 1012.8 hPa SO 10.9 km/h 20.9 km/h 45% 0.0 mm
03:24 17.2 °C 5.4 °C 1012.8 hPa OSO 10.3 km/h 22.2 km/h 45.6% 0.0 mm
03:29 17.1 °C 5.4 °C 1013.1 hPa OSO 11.2 km/h 22.5 km/h 46% 0.0 mm
03:34 17.1 °C 5.4 °C 1013.1 hPa OSO 11.9 km/h 20.9 km/h 46% 0.0 mm
03:39 17.1 °C 5.3 °C 1013.1 hPa SO 10.9 km/h 18.5 km/h 46% 0.0 mm
03:44 17.1 °C 5.4 °C 1013.2 hPa SO 10.3 km/h 22.5 km/h 46% 0.0 mm
03:49 17 °C 5.3 °C 1013.2 hPa SO 11.9 km/h 22.2 km/h 46% 0.0 mm
03:54 17 °C 5.3 °C 1013.2 hPa SO 13 km/h 24.1 km/h 46% 0.0 mm
03:59 17 °C 5.3 °C 1013.2 hPa SO 12.5 km/h 24.1 km/h 46% 0.0 mm
04:04 16.9 °C 5.2 °C 1013.2 hPa SO 12.2 km/h 24.5 km/h 46% 0.0 mm
04:09 16.9 °C 5.2 °C 1013.2 hPa SO 13.3 km/h 24.1 km/h 46% 0.0 mm
04:14 16.9 °C 5 °C 1013.3 hPa SO 14 km/h 24.5 km/h 45.2% 0.0 mm
04:19 17 °C 4.9 °C 1013.3 hPa SO 14 km/h 24.1 km/h 45% 0.0 mm
04:24 16.9 °C 5.2 °C 1013.3 hPa SSO 14 km/h 22.5 km/h 45.8% 0.0 mm
04:29 16.9 °C 5.2 °C 1013.4 hPa SSO 13.4 km/h 22.5 km/h 46% 0.0 mm
04:34 16.9 °C 5.2 °C 1013.4 hPa SSO 13 km/h 20.9 km/h 45.8% 0.0 mm
04:39 16.9 °C 5 °C 1013.4 hPa SO 12.6 km/h 22.2 km/h 45.4% 0.0 mm
04:44 16.8 °C 5.1 °C 1013.4 hPa SO 12.2 km/h 22.5 km/h 46% 0.0 mm
04:49 16.8 °C 5.1 °C 1013.3 hPa SO 11.1 km/h 19.3 km/h 46% 0.0 mm
04:54 16.7 °C 5 °C 1013.3 hPa SO 10.3 km/h 14.5 km/h 46% 0.0 mm
04:59 16.6 °C 4.9 °C 1013.5 hPa SSO 10.1 km/h 16.7 km/h 46% 0.0 mm
05:04 16.5 °C 4.8 °C 1013.5 hPa SSO 10 km/h 19 km/h 46% 0.0 mm
05:09 16.4 °C 4.7 °C 1013.5 hPa SSO 10.2 km/h 18.5 km/h 46% 0.0 mm
05:14 16.3 °C 4.7 °C 1013.6 hPa Sur 10.3 km/h 17.2 km/h 46% 0.0 mm
05:19 16.3 °C 4.7 °C 1013.6 hPa Sur 11.5 km/h 20.4 km/h 46% 0.0 mm
05:24 16.3 °C 4.7 °C 1013.6 hPa Sur 12.2 km/h 20.9 km/h 46% 0.0 mm
05:29 16.3 °C 4.7 °C 1013.7 hPa Sur 12 km/h 20.9 km/h 46% 0.0 mm
05:34 16.3 °C 4.7 °C 1013.7 hPa Sur 11.9 km/h 16.1 km/h 46% 0.0 mm
05:39 16.3 °C 4.7 °C 1013.7 hPa Sur 10.7 km/h 16.7 km/h 46% 0.0 mm
05:44 16.2 °C 4.6 °C 1013.9 hPa SSE 10 km/h 16.7 km/h 46% 0.0 mm
05:49 16.2 °C 4.6 °C 1013.9 hPa Sur 10 km/h 16.1 km/h 46% 0.0 mm
05:54 16.2 °C 4.6 °C 1013.9 hPa Sur 10 km/h 13 km/h 46% 0.0 mm
05:59 16.1 °C 4.5 °C 1014.4 hPa SO 8.4 km/h 13 km/h 46% 0.0 mm
06:04 16.1 °C 4.7 °C 1014.4 hPa SO 7.6 km/h 12.9 km/h 46.8% 0.0 mm
06:09 15.9 °C 4.6 °C 1014.4 hPa SSO 5.7 km/h 9.5 km/h 47% 0.0 mm
06:14 15.9 °C 4.6 °C 1014.4 hPa Sur 4.7 km/h 9.7 km/h 47% 0.0 mm
06:19 15.8 °C 4.5 °C 1014.4 hPa SE 4.8 km/h 8 km/h 47% 0.0 mm
06:24 15.9 °C 4.6 °C 1014.4 hPa Sur 5 km/h 10 km/h 47% 0.0 mm
06:29 15.9 °C 4.6 °C 1014.6 hPa SSO 5.5 km/h 14.8 km/h 47% 0.0 mm
06:34 15.8 °C 4.5 °C 1014.6 hPa SSO 5.8 km/h 14.5 km/h 47% 0.0 mm
06:39 15.8 °C 4.5 °C 1014.6 hPa SSO 6.8 km/h 14.5 km/h 47% 0.0 mm
06:44 15.7 °C 4.4 °C 1014.7 hPa SO 7.6 km/h 10 km/h 47.1% 0.0 mm
06:49 15.7 °C 4.7 °C 1014.7 hPa SO 6.8 km/h 11.1 km/h 48% 0.0 mm
06:54 15.6 °C 4.6 °C 1014.7 hPa OSO 6.5 km/h 11.9 km/h 48% 0.0 mm
06:59 15.6 °C 4.6 °C 1015.1 hPa SO 5.5 km/h 11.3 km/h 48% 0.0 mm
07:04 15.6 °C 4.6 °C 1015.1 hPa SO 5 km/h 11.3 km/h 48% 0.0 mm
07:09 15.6 °C 4.6 °C 1015.1 hPa SO 5.8 km/h 11.9 km/h 48% 0.0 mm
07:14 15.6 °C 4.6 °C 1015.3 hPa SO 6.5 km/h 14.8 km/h 48% 0.0 mm
07:19 15.7 °C 4.5 °C 1015.3 hPa SO 7.7 km/h 14.5 km/h 47.4% 0.0 mm
07:24 15.7 °C 4.4 °C 1015.3 hPa SO 8.4 km/h 13 km/h 47.1% 0.0 mm
07:29 15.7 °C 4.4 °C 1015.4 hPa SO 7.4 km/h 12.9 km/h 47% 0.0 mm
07:34 15.7 °C 4.4 °C 1015.4 hPa SO 6.9 km/h 14.8 km/h 47% 0.0 mm
07:39 15.7 °C 4.4 °C 1015.4 hPa SO 8.1 km/h 15.6 km/h 47% 0.0 mm
07:44 15.7 °C 4.4 °C 1015.7 hPa SO 8.7 km/h 16.1 km/h 47% 0.0 mm
07:49 15.6 °C 4.4 °C 1015.7 hPa SO 9.2 km/h 14.8 km/h 47% 0.0 mm
07:54 15.7 °C 4.4 °C 1015.7 hPa SO 9.5 km/h 14.8 km/h 46.9% 0.0 mm
07:59 15.8 °C 4.4 °C 1016.0 hPa SO 9 km/h 14.5 km/h 46.9% 0.0 mm
08:04 15.9 °C 4.3 °C 1016.0 hPa SSO 8.7 km/h 13 km/h 46.1% 0.0 mm
08:09 16 °C 4.2 °C 1016.0 hPa SSO 8.1 km/h 13.7 km/h 45.3% 0.0 mm
08:14 16.1 °C 4.2 °C 1016.2 hPa SSO 7.6 km/h 16.7 km/h 45% 0.0 mm
08:19 16.2 °C 4 °C 1016.2 hPa SO 9.3 km/h 20.4 km/h 44.2% 0.0 mm
08:24 16.3 °C 4 °C 1016.2 hPa SO 10.3 km/h 20.9 km/h 43.9% 0.0 mm
08:29 16.4 °C 3.9 °C 1016.5 hPa SO 10.3 km/h 20.9 km/h 43.3% 0.0 mm
08:34 16.5 °C 3.9 °C 1016.5 hPa SO 10.3 km/h 19 km/h 43% 0.0 mm
08:39 16.6 °C 3.9 °C 1016.5 hPa SO 10.8 km/h 19.3 km/h 43% 0.0 mm
08:44 16.7 °C 3.8 °C 1016.6 hPa OSO 11.1 km/h 19.3 km/h 42.5% 0.0 mm
08:49 16.7 °C 3.7 °C 1016.6 hPa OSO 10.6 km/h 20.9 km/h 42.1% 0.0 mm
08:54 16.8 °C 3.8 °C 1016.6 hPa OSO 10.3 km/h 20.9 km/h 42% 0.0 mm
08:59 16.9 °C 3.9 °C 1016.8 hPa OSO 11.4 km/h 20.4 km/h 42% 0.0 mm
09:04 17 °C 4 °C 1016.8 hPa OSO 11.9 km/h 20.9 km/h 42% 0.0 mm
09:09 17 °C 4.1 °C 1016.8 hPa Oeste 12.1 km/h 20.9 km/h 42.2% 0.0 mm
09:14 17.1 °C 4.2 °C 1016.9 hPa OSO 12.2 km/h 25.1 km/h 42.6% 0.0 mm
09:19 17.2 °C 3.9 °C 1016.9 hPa OSO 13.4 km/h 25.9 km/h 41.3% 0.0 mm
09:24 17.3 °C 3.7 °C 1016.9 hPa OSO 14 km/h 25.7 km/h 40.5% 0.0 mm
09:29 17.4 °C 3.7 °C 1017.1 hPa OSO 13.4 km/h 24.1 km/h 40.1% 0.0 mm
09:34 17.7 °C 3.5 °C 1017.1 hPa OSO 13 km/h 29.6 km/h 38.9% 0.0 mm
09:39 17.7 °C 3.2 °C 1017.1 hPa ONO 14.8 km/h 31.5 km/h 38% 0.0 mm
09:44 17.7 °C 3.2 °C 1017.2 hPa ONO 16.1 km/h 32.2 km/h 38% 0.0 mm
09:49 17.8 °C 3.2 °C 1017.2 hPa Oeste 16.1 km/h 25.6 km/h 37.5% 0.0 mm
09:54 17.9 °C 2.9 °C 1017.2 hPa OSO 16.1 km/h 37.8 km/h 36.7% 0.0 mm
09:59 17.9 °C 2.6 °C 1017.5 hPa OSO 16.8 km/h 37 km/h 36% 0.0 mm
10:04 17.9 °C 2.6 °C 1017.5 hPa OSO 17.2 km/h 33.8 km/h 35.9% 0.0 mm
10:09 18 °C 2.4 °C 1017.5 hPa Oeste 18.2 km/h 33.3 km/h 35.3% 0.0 mm
10:14 18 °C 2.7 °C 1017.5 hPa Oeste 19 km/h 33.8 km/h 35.9% 0.0 mm
10:19 18.2 °C 2.7 °C 1017.5 hPa Oeste 17.9 km/h 31.7 km/h 35.8% 0.0 mm
10:24 18.2 °C 2.6 °C 1017.5 hPa Oeste 17.2 km/h 33.3 km/h 35.1% 0.0 mm
10:29 18.3 °C 2.6 °C 1017.8 hPa Oeste 16.7 km/h 26.2 km/h 35.2% 0.0 mm
10:34 18.4 °C 2.7 °C 1017.8 hPa Oeste 16.4 km/h 25.7 km/h 35% 0.0 mm
10:39 18.4 °C 2.6 °C 1017.8 hPa ONO 16.2 km/h 30.6 km/h 34.8% 0.0 mm
10:44 18.4 °C 2.6 °C 1017.9 hPa ONO 16.1 km/h 33.3 km/h 34.8% 0.0 mm
10:49 18.5 °C 2.6 °C 1017.9 hPa ONO 17.8 km/h 33.8 km/h 34.7% 0.0 mm
10:54 18.6 °C 2.7 °C 1017.9 hPa Oeste 19 km/h 27.8 km/h 34.8% 0.0 mm
10:59 18.6 °C 2.4 °C 1018.0 hPa Oeste 16.8 km/h 29.8 km/h 34% 0.0 mm
11:04 18.6 °C 2.4 °C 1018.0 hPa Oeste 15.6 km/h 30.6 km/h 34% 0.0 mm
11:09 18.8 °C 2.5 °C 1018.0 hPa Oeste 15.1 km/h 25.7 km/h 33.8% 0.0 mm
11:14 18.9 °C 2.3 °C 1018.0 hPa Oeste 14.8 km/h 26.2 km/h 33.1% 0.0 mm
11:19 18.9 °C 2.4 °C 1018.0 hPa ONO 13.7 km/h 33.3 km/h 33.4% 0.0 mm
11:24 19.1 °C 2.5 °C 1018.0 hPa NO 13 km/h 33.8 km/h 33.1% 0.0 mm
11:29 19.1 °C 2.2 °C 1018.2 hPa ONO 15.6 km/h 32.8 km/h 32.5% 0.0 mm
11:34 19 °C 2.1 °C 1018.2 hPa ONO 17.2 km/h 33.8 km/h 32.4% 0.0 mm
11:39 19.1 °C 2.4 °C 1018.2 hPa ONO 18.7 km/h 29.6 km/h 32.8% 0.0 mm
11:44 19.3 °C 2.1 °C 1018.5 hPa ONO 19.8 km/h 29.6 km/h 32% 0.0 mm
11:49 19.2 °C 2 °C 1018.5 hPa ONO 16.4 km/h 29 km/h 31.8% 0.0 mm
11:54 19.3 °C 1.8 °C 1018.5 hPa OSO 14 km/h 25.6 km/h 31.2% 0.0 mm
11:59 19.3 °C 2.1 °C 1018.5 hPa Oeste 14.5 km/h 31.7 km/h 31.9% 0.0 mm
12:04 19.5 °C 2.4 °C 1018.5 hPa ONO 14.8 km/h 32.2 km/h 32% 0.0 mm
12:09 19.7 °C 2.4 °C 1018.5 hPa ONO 16.3 km/h 29.1 km/h 31.8% 0.0 mm
12:14 19.6 °C 1.8 °C 1018.6 hPa Oeste 17.2 km/h 29.6 km/h 30.7% 0.0 mm
12:19 19.7 °C 1.7 °C 1018.6 hPa Oeste 16.2 km/h 33.3 km/h 30.1% 0.0 mm
12:24 19.8 °C 1.4 °C 1018.6 hPa OSO 15.6 km/h 37 km/h 29.3% 0.0 mm
12:29 20.2 °C 2 °C 1018.6 hPa ONO 16.1 km/h 38.9 km/h 30% 0.0 mm
12:34 20.2 °C 1.5 °C 1018.4 hPa Oeste 16.4 km/h 38.6 km/h 28.9% 0.0 mm
12:39 20.3 °C 1.3 °C 1018.4 hPa Oeste 18 km/h 34.3 km/h 28.2% 0.0 mm
12:44 20.4 °C 0.9 °C 1018.4 hPa ONO 19 km/h 37 km/h 27.4% 0.0 mm
12:49 20.5 °C 1.1 °C 1018.3 hPa ONO 19.7 km/h 37 km/h 27.5% 0.0 mm
12:54 20.6 °C 1 °C 1018.3 hPa Oeste 20.1 km/h 35.4 km/h 27.1% 0.0 mm
12:59 20.6 °C 1 °C 1018.3 hPa ONO 19.4 km/h 35.4 km/h 27% 0.0 mm
13:04 20.7 °C 1 °C 1018.2 hPa ONO 19 km/h 33.8 km/h 27% 0.0 mm
13:09 20.8 °C 1 °C 1018.2 hPa ONO 17.4 km/h 33.8 km/h 26.6% 0.0 mm
13:14 20.8 °C 1.1 °C 1018.2 hPa Oeste 16.4 km/h 29 km/h 27% 0.0 mm
13:19 21 °C 1.1 °C 1018.2 hPa OSO 16.2 km/h 29.6 km/h 26.7% 0.0 mm
13:24 21 °C 0.8 °C 1018.2 hPa OSO 16.1 km/h 29 km/h 26.1% 0.0 mm
13:29 21 °C 1.3 °C 1018.2 hPa ONO 14.8 km/h 29.6 km/h 27% 0.0 mm
13:34 21.3 °C 1.3 °C 1018.2 hPa NO 14 km/h 29 km/h 26.6% 0.0 mm
13:39 21.4 °C 1.1 °C 1018.2 hPa ONO 15.5 km/h 26.2 km/h 26% 0.0 mm
13:44 21.4 °C 0.9 °C 1018.2 hPa Oeste 16.4 km/h 30.9 km/h 25.6% 0.0 mm
13:49 21.4 °C 0.3 °C 1018.2 hPa Oeste 16.9 km/h 32.2 km/h 24.7% 0.0 mm
13:54 21.5 °C 0.6 °C 1018.2 hPa Oeste 17.2 km/h 34.3 km/h 24.9% 0.0 mm
13:59 21.7 °C 0.4 °C 1018.2 hPa Oeste 16.2 km/h 33.8 km/h 24.3% 0.0 mm
14:04 21.7 °C 0.4 °C 1018.0 hPa Oeste 15.6 km/h 35.2 km/h 24.2% 0.0 mm
14:09 21.6 °C 0.3 °C 1018.0 hPa Oeste 18.2 km/h 35.4 km/h 24.3% 0.0 mm
14:14 21.7 °C 0.5 °C 1018.0 hPa Oeste 19.8 km/h 33.8 km/h 24.4% 0.0 mm
14:19 21.8 °C 0.5 °C 1018.0 hPa ONO 18.9 km/h 34.3 km/h 24.2% 0.0 mm
14:24 21.8 °C 0.3 °C 1018.0 hPa ONO 18.3 km/h 33.3 km/h 24% 0.0 mm
14:29 21.7 °C 0.4 °C 1018.0 hPa Oeste 18.7 km/h 34.3 km/h 24.3% 0.0 mm
14:34 21.7 °C 0.3 °C 1018.0 hPa Oeste 19 km/h 33.8 km/h 24% 0.0 mm
14:39 22 °C 0.9 °C 1018.0 hPa Oeste 17.5 km/h 33.8 km/h 24.9% 0.0 mm
14:44 22 °C 1 °C 1018.0 hPa ONO 16.4 km/h 34.3 km/h 25% 0.0 mm
14:49 22 °C 0.6 °C 1017.8 hPa Oeste 17.5 km/h 34.6 km/h 24.2% 0.0 mm
14:54 22.1 °C 0.6 °C 1017.8 hPa Oeste 18.4 km/h 35.4 km/h 24% 0.0 mm
14:59 22.3 °C 0.5 °C 1017.8 hPa Oeste 16.5 km/h 35.2 km/h 23.5% 0.0 mm
15:04 22.3 °C 0.2 °C 1017.6 hPa OSO 15.6 km/h 35.4 km/h 23.1% 0.0 mm
15:09 22.3 °C 0.6 °C 1017.6 hPa ONO 17.1 km/h 29 km/h 23.7% 0.0 mm
15:14 22.4 °C 0.5 °C 1017.6 hPa Oeste 18 km/h 37 km/h 23.5% 0.0 mm
15:19 22.2 °C 0.6 °C 1017.6 hPa ONO 18.2 km/h 37 km/h 23.9% 0.0 mm
15:24 22.2 °C 0.6 °C 1017.6 hPa Oeste 18.4 km/h 32.2 km/h 24% 0.0 mm
15:29 22.2 °C 0.6 °C 1017.6 hPa NO 16.9 km/h 27.4 km/h 24% 0.0 mm
15:34 22.5 °C 1 °C 1017.5 hPa Oeste 16.1 km/h 30.6 km/h 24.2% 0.0 mm
15:39 22.7 °C 1.2 °C 1017.5 hPa ONO 14.8 km/h 30.6 km/h 24.3% 0.0 mm
15:44 22.7 °C 1.1 °C 1017.5 hPa ONO 14 km/h 29 km/h 24% 0.0 mm
15:49 22.7 °C 1.1 °C 1017.3 hPa ONO 16.8 km/h 33.5 km/h 24.1% 0.0 mm
15:54 22.7 °C 1.1 °C 1017.3 hPa ONO 19 km/h 33.8 km/h 24.1% 0.0 mm
15:59 22.7 °C 0.8 °C 1017.3 hPa OSO 17.9 km/h 33.8 km/h 23.5% 0.0 mm
16:04 22.9 °C 1.1 °C 1017.1 hPa ONO 17.2 km/h 33.5 km/h 23.7% 0.0 mm
16:09 23.1 °C 1.1 °C 1017.1 hPa Oeste 15.6 km/h 33.8 km/h 23.5% 0.0 mm
16:14 23 °C 1.1 °C 1017.1 hPa ONO 14.8 km/h 25.6 km/h 23.6% 0.0 mm
16:19 23.3 °C 1 °C 1016.8 hPa ONO 12.1 km/h 27 km/h 22.9% 0.0 mm
16:24 23.3 °C 0.8 °C 1016.8 hPa ONO 10.3 km/h 29.6 km/h 22.7% 0.0 mm
16:29 23.2 °C 1 °C 1016.8 hPa NO 13.2 km/h 29 km/h 23.2% 0.0 mm
16:34 23.3 °C 1.4 °C 1016.7 hPa ONO 15.6 km/h 24.1 km/h 23.6% 0.0 mm
16:39 23.3 °C 1.1 °C 1016.7 hPa ONO 14.6 km/h 28.2 km/h 23.2% 0.0 mm
16:44 23.1 °C 1.2 °C 1016.9 hPa OSO 14 km/h 27.8 km/h 23.6% 0.0 mm
16:49 23.2 °C 1.5 °C 1016.9 hPa OSO 12.9 km/h 13 km/h 24% 0.0 mm
16:54 23.6 °C 1.8 °C 1016.9 hPa Oeste 12.2 km/h 24.5 km/h 24% 0.0 mm
16:59 23.7 °C 1.9 °C 1016.9 hPa ONO 10.9 km/h 29.6 km/h 23.9% 0.0 mm
17:04 23.7 °C 1.9 °C 1016.7 hPa ONO 10.3 km/h 30.6 km/h 23.9% 0.0 mm
17:09 23.5 °C 1.3 °C 1016.7 hPa SO 12.2 km/h 25.7 km/h 23.2% 0.0 mm
17:14 23.6 °C 1.2 °C 1016.7 hPa SO 13.7 km/h 29.6 km/h 22.9% 0.0 mm
17:19 23.6 °C 1.2 °C 1016.7 hPa Oeste 13.3 km/h 29 km/h 23% 0.0 mm
17:24 23.4 °C 1.3 °C 1016.7 hPa NO 13 km/h 25.9 km/h 23.3% 0.0 mm
17:29 23.4 °C 1.6 °C 1016.7 hPa NO 12.3 km/h 25.7 km/h 23.9% 0.0 mm
17:34 23.7 °C 1.2 °C 1016.6 hPa NO 11.9 km/h 29.6 km/h 22.9% 0.0 mm
17:39 23.8 °C 1.4 °C 1016.6 hPa ONO 12.9 km/h 29 km/h 23% 0.0 mm
17:44 24 °C 1.6 °C 1016.7 hPa Oeste 13.7 km/h 25.9 km/h 23.1% 0.0 mm
17:49 24.1 °C 1.6 °C 1016.7 hPa ONO 13.7 km/h 25.7 km/h 22.9% 0.0 mm
17:54 24 °C 1.6 °C 1016.7 hPa ONO 13.7 km/h 27 km/h 23% 0.0 mm
17:59 24 °C 1.5 °C 1016.7 hPa NO 13.3 km/h 27.8 km/h 23% 0.0 mm
18:04 24.1 °C 1.5 °C 1016.7 hPa ONO 13 km/h 30.6 km/h 22.8% 0.0 mm
18:09 23.9 °C 1.2 °C 1016.7 hPa Oeste 13.6 km/h 30.6 km/h 22.6% 0.0 mm
18:14 23.9 °C 1.5 °C 1016.7 hPa ONO 14 km/h 27.8 km/h 23% 0.0 mm
18:19 24.1 °C 1.7 °C 1016.6 hPa NO 12.9 km/h 27.8 km/h 23% 0.0 mm
18:24 24.1 °C 1.7 °C 1016.6 hPa ONO 12.2 km/h 30.6 km/h 23% 0.0 mm
18:29 24.2 °C 1.7 °C 1016.6 hPa NO 12.7 km/h 30.6 km/h 23% 0.0 mm
18:34 24.2 °C 1.8 °C 1016.6 hPa ONO 13 km/h 20.9 km/h 23.1% 0.0 mm
18:39 24.3 °C 1.8 °C 1016.6 hPa Oeste 11.3 km/h 22.2 km/h 23% 0.0 mm
18:44 24.2 °C 1.7 °C 1016.6 hPa ONO 10.3 km/h 22.5 km/h 23% 0.0 mm
18:49 24.3 °C 1.8 °C 1016.4 hPa ONO 10.8 km/h 22.5 km/h 23% 0.0 mm
18:54 24.3 °C 1.8 °C 1016.4 hPa ONO 11.1 km/h 25.1 km/h 23% 0.0 mm
18:59 24.2 °C 1.7 °C 1016.4 hPa ONO 11.8 km/h 25.9 km/h 23% 0.0 mm
19:04 24 °C 1.7 °C 1016.2 hPa ONO 12.2 km/h 25.9 km/h 23.2% 0.0 mm
19:09 24.1 °C 2.1 °C 1016.2 hPa ONO 13.1 km/h 25.7 km/h 23.8% 0.0 mm
19:14 24.1 °C 2.2 °C 1016.2 hPa NO 13.7 km/h 20.9 km/h 23.8% 0.0 mm
19:19 24.1 °C 2.3 °C 1016.1 hPa NO 11.3 km/h 20.9 km/h 24% 0.0 mm
19:24 24.2 °C 2.2 °C 1016.1 hPa NO 10 km/h 20.4 km/h 23.9% 0.0 mm
19:29 24.1 °C 2.2 °C 1016.3 hPa NO 10 km/h 20.9 km/h 24% 0.0 mm
19:34 24.1 °C 2.3 °C 1016.3 hPa ONO 10 km/h 20.4 km/h 24% 0.0 mm
19:39 24.2 °C 2.1 °C 1016.3 hPa ONO 10.2 km/h 20.9 km/h 23.6% 0.0 mm
19:44 24.2 °C 2.3 °C 1016.3 hPa NO 10.3 km/h 20.4 km/h 24% 0.0 mm
19:49 24.1 °C 2.3 °C 1016.2 hPa NO 10.1 km/h 20.9 km/h 24% 0.0 mm
19:54 24.1 °C 2.3 °C 1016.2 hPa ONO 10 km/h 20.9 km/h 24.1% 0.0 mm
19:59 24.2 °C 2.4 °C 1016.3 hPa ONO 8.1 km/h 11.3 km/h 24% 0.0 mm
20:04 24.3 °C 2.4 °C 1016.3 hPa NO 6.9 km/h 11.1 km/h 24% 0.0 mm
20:09 24.3 °C 2.5 °C 1016.3 hPa NNO 5.7 km/h 11.3 km/h 24% 0.0 mm
20:14 24.4 °C 2.7 °C 1016.5 hPa NO 5 km/h 7.6 km/h 24.3% 0.0 mm
20:19 24.4 °C 5.6 °C 1016.5 hPa ENE 4.3 km/h 9.3 km/h 29.8% 0.0 mm
20:24 23.9 °C 7.5 °C 1016.5 hPa Este 3.9 km/h 13.7 km/h 34.9% 0.0 mm
20:29 22.9 °C 7.5 °C 1016.7 hPa ESE 5.7 km/h 17.2 km/h 37.1% 0.0 mm
20:34 22.2 °C 7.8 °C 1016.7 hPa ESE 6.9 km/h 25.9 km/h 39.7% 0.0 mm
20:39 21.6 °C 7.8 °C 1016.7 hPa ESE 10.5 km/h 25.7 km/h 41.1% 0.0 mm
20:44 21.2 °C 7.8 °C 1017.0 hPa ESE 13 km/h 24.1 km/h 42% 0.0 mm
20:49 21 °C 7.8 °C 1017.0 hPa ESE 13.6 km/h 22.5 km/h 42.7% 0.0 mm
20:54 20.9 °C 7.8 °C 1017.0 hPa ESE 14 km/h 19.3 km/h 43% 0.0 mm
20:59 20.8 °C 7.8 °C 1017.4 hPa SSE 11.3 km/h 16.1 km/h 43% 0.0 mm
21:04 20.8 °C 7 °C 1017.4 hPa Sur 10 km/h 18.3 km/h 40.7% 0.0 mm
21:09 21 °C 6.7 °C 1017.4 hPa SSE 10.1 km/h 19.3 km/h 39.6% 0.0 mm
21:14 21.1 °C 6.9 °C 1017.7 hPa SSE 10.3 km/h 19.3 km/h 40% 0.0 mm
21:19 21 °C 7.2 °C 1017.7 hPa ESE 9.8 km/h 13 km/h 40.9% 0.0 mm
21:24 20.7 °C 7.5 °C 1017.7 hPa ESE 9.5 km/h 11.3 km/h 42.3% 0.0 mm
21:29 20.5 °C 7.5 °C 1017.9 hPa ESE 7.7 km/h 11.3 km/h 43% 0.0 mm
21:34 20.3 °C 7.3 °C 1017.9 hPa SE 6.5 km/h 9.7 km/h 43% 0.0 mm
21:39 20.2 °C 7.1 °C 1017.9 hPa SSE 6.8 km/h 11.1 km/h 42.8% 0.0 mm
21:44 20.3 °C 7 °C 1018.1 hPa SSE 6.9 km/h 11.3 km/h 42.1% 0.0 mm
21:49 20.3 °C 6.8 °C 1018.1 hPa SSE 6.9 km/h 9.7 km/h 41.6% 0.0 mm
21:54 20.4 °C 6.6 °C 1018.1 hPa SE 6.9 km/h 9.7 km/h 40.8% 0.0 mm
21:59 20.3 °C 6.5 °C 1018.4 hPa SSE 6.2 km/h 9.7 km/h 40.7% 0.0 mm
22:04 20.2 °C 5.5 °C 1018.4 hPa Sur 5.8 km/h 13 km/h 38.1% 0.0 mm
22:09 20.2 °C 5.4 °C 1018.4 hPa Sur 6.5 km/h 12.9 km/h 38% 0.0 mm
22:14 20.2 °C 5.2 °C 1018.7 hPa SSO 6.9 km/h 15.6 km/h 37.3% 0.0 mm
22:19 20.1 °C 5 °C 1018.7 hPa SSO 7.8 km/h 16.1 km/h 37.1% 0.0 mm
22:24 20.1 °C 4.9 °C 1018.7 hPa Sur 8.4 km/h 13 km/h 37% 0.0 mm
22:29 20 °C 4.9 °C 1018.9 hPa SSO 8.5 km/h 14.8 km/h 37% 0.0 mm
22:34 19.9 °C 5.2 °C 1018.9 hPa SO 8.7 km/h 14.5 km/h 38.1% 0.0 mm
22:39 19.9 °C 5.5 °C 1018.9 hPa SO 7.6 km/h 11.3 km/h 39% 0.0 mm
22:44 19.8 °C 5.6 °C 1019.0 hPa SSO 6.9 km/h 11.1 km/h 39.3% 0.0 mm
22:49 19.7 °C 5.7 °C 1019.0 hPa SSO 6.6 km/h 11.9 km/h 40% 0.0 mm
22:54 19.5 °C 5.5 °C 1019.0 hPa SSO 6.5 km/h 11.3 km/h 40% 0.0 mm
22:55 19.4 °C 5.4 °C 1019.0 hPa SSO 7.2 km/h 11.3 km/h 40% 0.0 mm
23:04 19.3 °C 5.3 °C 1019.2 hPa SO 6.9 km/h 11.3 km/h 40% 0.0 mm
23:09 19.2 °C 5.3 °C 1019.2 hPa SO 6.2 km/h 9.7 km/h 40% 0.0 mm
23:14 19.2 °C 5.2 °C 1019.3 hPa SO 5.8 km/h 8 km/h 40% 0.0 mm
23:19 19.1 °C 5.2 °C 1019.3 hPa SSO 5.1 km/h 8.4 km/h 40% 0.0 mm
23:24 19 °C 5.2 °C 1019.3 hPa Sur 4.7 km/h 8 km/h 40.1% 0.0 mm
23:29 18.9 °C 5.4 °C 1019.4 hPa Este 3.8 km/h 5.6 km/h 41.1% 0.0 mm
23:34 18.8 °C 5.6 °C 1019.4 hPa NE 3.2 km/h 7.6 km/h 42% 0.0 mm
23:39 18.7 °C 5.5 °C 1019.4 hPa Oeste 3.2 km/h 8 km/h 42% 0.0 mm
23:44 18.6 °C 5.1 °C 1019.5 hPa SSO 3.2 km/h 8 km/h 41.2% 0.0 mm
23:49 18.6 °C 5.1 °C 1019.5 hPa SO 3.6 km/h 8 km/h 41% 0.0 mm
23:54 18.6 °C 4.9 °C 1019.5 hPa SSO 3.9 km/h 8 km/h 40.7% 0.0 mm
23:59 18.5 °C 5 °C 1019.6 hPa ESE 3.9 km/h 9.3 km/h 40.9% 0.0 mm
Murcia-Puente Tocinos, España
Compliments of Weather Underground - 3 mb

La estación de MeteoMurcia.com, publica sus datos en los siguientes proyectos:

Weather Underground PWS IMURCIAP2 Meteoclimatic www.awekas.at

W3Counter
Web Analytics